Terminal Aerodrome Forecast
Issued by NWS Sterling, VA

Home | Current Version | Previous Version | Text Only | Print | Product List | Glossary On
Versions: 1 2 3 4 5 6 7 8 9 10 11 12 13 14 15 16 17 18 19 20 21 22 23
000
FTUS41 KLWX 231557 AAA
TAFIAD
TAF AMD
KIAD 231557Z 2316/2418 36006KT P6SM BKN030
     FM231700 26014G26KT P6SM SCT050
     FM240500 29007KT P6SM SCT035
     FM241500 30013G23KT P6SM SCT035=

USA.gov is the U.S. government's official web portal to all federal, state and local government web resources and services.